createdAt,value
2018-12-01T00:00:27.295Z,7.30
2018-12-01T00:02:56.155Z,7.20
2018-12-01T00:05:24.999Z,7.20
2018-12-01T00:10:23.286Z,7.20
2018-12-01T00:12:52.159Z,7.10
2018-12-01T00:15:21.006Z,7.10
2018-12-01T00:17:49.935Z,7.10
2018-12-01T00:20:18.743Z,7.00
2018-12-01T00:22:47.591Z,7.10
2018-12-01T00:25:16.431Z,7.00
2018-12-01T00:27:45.298Z,7.00
2018-12-01T00:30:14.102Z,7.00
2018-12-01T00:32:42.932Z,7.00
2018-12-01T00:35:11.777Z,7.00
2018-12-01T00:37:40.608Z,7.00
2018-12-01T00:40:10.243Z,6.90
2018-12-01T00:42:39.039Z,6.90
2018-12-01T00:45:07.885Z,6.90
2018-12-01T00:47:36.722Z,6.90
2018-12-01T00:50:05.561Z,6.90
2018-12-01T00:52:35.175Z,7.00
2018-12-01T00:55:03.997Z,6.90
2018-12-01T00:57:32.838Z,6.90
2018-12-01T01:00:01.677Z,6.90
2018-12-01T01:02:30.524Z,6.90
2018-12-01T01:04:59.371Z,6.80
2018-12-01T01:07:28.206Z,6.70
2018-12-01T01:09:57.054Z,6.70
2018-12-01T01:12:25.934Z,6.70
2018-12-01T01:14:54.752Z,6.70
2018-12-01T01:17:23.634Z,6.60
2018-12-01T01:19:52.455Z,6.70
2018-12-01T01:22:22.050Z,6.60
2018-12-01T01:24:51.637Z,6.60
2018-12-01T01:29:49.895Z,6.60
2018-12-01T01:32:18.733Z,6.50
2018-12-01T01:34:47.594Z,6.50
2018-12-01T01:37:16.458Z,6.60
2018-12-01T01:39:45.297Z,6.50
2018-12-01T01:42:14.139Z,6.40
2018-12-01T01:44:42.980Z,6.40
2018-12-01T01:47:12.570Z,6.40
2018-12-01T01:49:41.415Z,6.40
2018-12-01T01:52:10.269Z,6.40
2018-12-01T01:54:39.857Z,6.30
2018-12-01T01:57:08.676Z,6.30
2018-12-01T01:59:37.515Z,6.30
2018-12-01T02:02:06.359Z,6.30
2018-12-01T02:04:35.190Z,6.30
2018-12-01T02:07:04.025Z,6.30
2018-12-01T02:09:33.592Z,6.20
2018-12-01T02:12:02.425Z,6.20
2018-12-01T02:14:31.265Z,6.20
2018-12-01T02:17:00.112Z,6.20
2018-12-01T02:19:28.954Z,6.20
2018-12-01T02:21:57.792Z,6.30
2018-12-01T02:24:26.626Z,6.20
2018-12-01T02:26:55.481Z,6.20
2018-12-01T02:29:24.321Z,6.20
2018-12-01T02:31:53.167Z,6.20
2018-12-01T02:34:22.027Z,6.20
2018-12-01T02:36:51.603Z,6.30
2018-12-01T02:39:20.452Z,6.20
2018-12-01T02:41:49.289Z,6.20
2018-12-01T02:47:05.026Z,6.20
2018-12-01T02:49:34.602Z,6.20
2018-12-01T02:52:03.440Z,6.20
2018-12-01T02:54:32.282Z,6.20
2018-12-01T02:57:01.130Z,6.20
2018-12-01T02:59:29.959Z,6.30
2018-12-01T03:01:59.532Z,6.30
2018-12-01T03:04:28.367Z,6.30
2018-12-01T03:06:57.212Z,6.30
2018-12-01T03:09:26.047Z,6.30
2018-12-01T03:11:54.898Z,6.30
2018-12-01T03:14:23.733Z,6.30
2018-12-01T03:16:52.572Z,6.40
2018-12-01T03:19:21.410Z,6.40
2018-12-01T03:21:50.247Z,6.40
2018-12-01T03:24:19.081Z,6.40
2018-12-01T03:26:47.918Z,6.40
2018-12-01T03:29:16.767Z,6.40
2018-12-01T03:31:45.611Z,6.50
2018-12-01T03:34:14.433Z,6.50
2018-12-01T03:36:44.018Z,6.50
2018-12-01T03:39:13.605Z,6.50
2018-12-01T03:41:42.437Z,6.60
2018-12-01T03:44:11.279Z,6.60
2018-12-01T03:46:40.122Z,6.50
2018-12-01T03:49:08.985Z,6.50
2018-12-01T03:51:37.827Z,6.50
2018-12-01T03:54:06.666Z,6.50
2018-12-01T03:56:36.242Z,6.40
2018-12-01T03:59:05.091Z,6.40
2018-12-01T04:01:33.921Z,6.30
2018-12-01T04:04:02.785Z,6.30
2018-12-01T04:06:31.615Z,6.30
2018-12-01T04:09:00.461Z,6.30
2018-12-01T04:11:29.304Z,6.20
2018-12-01T04:13:58.140Z,6.20
2018-12-01T04:16:26.974Z,6.20
2018-12-01T04:18:55.838Z,6.20
2018-12-01T04:21:24.671Z,6.30
2018-12-01T04:23:53.506Z,6.30
2018-12-01T04:26:22.395Z,6.30
2018-12-01T04:28:51.939Z,6.30
2018-12-01T04:31:20.799Z,6.40
2018-12-01T04:33:49.647Z,6.50
2018-12-01T04:36:18.478Z,6.50
2018-12-01T04:38:47.313Z,6.60
2018-12-01T04:41:16.167Z,6.60
2018-12-01T04:43:44.993Z,6.60
2018-12-01T04:46:14.581Z,6.60
2018-12-01T04:48:43.444Z,6.60
2018-12-01T04:51:12.288Z,6.60
2018-12-01T04:53:41.132Z,6.70
2018-12-01T04:56:09.972Z,6.70
2018-12-01T04:58:38.827Z,6.70
2018-12-01T05:01:07.687Z,6.60
2018-12-01T05:03:36.570Z,6.70
2018-12-01T05:06:05.396Z,6.70
2018-12-01T05:08:35.006Z,6.80
2018-12-01T05:11:03.820Z,6.80
2018-12-01T05:13:32.677Z,6.80
2018-12-01T05:16:01.529Z,6.80
2018-12-01T05:18:30.390Z,6.90
2018-12-01T05:20:59.952Z,6.90
2018-12-01T05:23:28.780Z,6.90
2018-12-01T05:25:57.630Z,6.90
2018-12-01T05:28:26.472Z,6.80
2018-12-01T05:30:55.341Z,6.80
2018-12-01T05:33:24.915Z,6.80
2018-12-01T05:35:53.747Z,6.80
2018-12-01T05:38:22.589Z,6.80
2018-12-01T05:40:51.434Z,6.80
2018-12-01T05:43:20.288Z,6.70
2018-12-01T05:45:49.861Z,6.70
2018-12-01T05:48:18.699Z,6.80
2018-12-01T05:50:48.288Z,6.80
2018-12-01T05:53:17.128Z,6.80
2018-12-01T05:55:45.973Z,6.80
2018-12-01T05:58:15.556Z,6.70
2018-12-01T06:00:44.390Z,6.80
2018-12-01T06:03:13.233Z,6.80
2018-12-01T06:05:42.075Z,6.80
2018-12-01T06:08:10.919Z,6.80
2018-12-01T06:10:39.774Z,6.80
2018-12-01T06:13:08.616Z,6.90
2018-12-01T06:15:38.201Z,6.90
2018-12-01T06:18:07.044Z,6.90
2018-12-01T06:20:35.883Z,6.90
2018-12-01T06:23:04.734Z,6.90
2018-12-01T06:25:33.576Z,7.00
2018-12-01T06:28:03.159Z,6.90
2018-12-01T06:30:31.992Z,6.90
2018-12-01T06:33:00.829Z,6.90
2018-12-01T06:35:29.726Z,6.80
2018-12-01T06:37:58.554Z,6.80
2018-12-01T06:40:27.390Z,6.70
2018-12-01T06:42:56.222Z,6.70
2018-12-01T06:45:25.807Z,6.70
2018-12-01T06:47:54.642Z,6.60
2018-12-01T06:50:23.487Z,6.70
2018-12-01T06:52:52.334Z,6.60
2018-12-01T06:55:21.165Z,6.60
2018-12-01T06:57:50.021Z,6.50
2018-12-01T07:00:18.864Z,6.50
2018-12-01T07:02:48.503Z,6.50
2018-12-01T07:05:17.305Z,6.50
2018-12-01T07:07:46.158Z,6.50
2018-12-01T07:10:14.998Z,6.50
2018-12-01T07:12:43.818Z,6.40
2018-12-01T07:15:13.411Z,6.40
2018-12-01T07:17:42.245Z,6.40
2018-12-01T07:20:11.086Z,6.40
2018-12-01T07:22:40.707Z,6.40
2018-12-01T07:25:09.543Z,6.40
2018-12-01T07:27:38.385Z,6.40
2018-12-01T07:30:07.987Z,6.40
2018-12-01T07:32:36.830Z,6.50
2018-12-01T07:35:05.677Z,6.50
2018-12-01T07:37:35.252Z,6.40
2018-12-01T07:40:04.085Z,6.50
2018-12-01T07:42:32.932Z,6.50
2018-12-01T07:45:01.795Z,6.50
2018-12-01T07:47:30.623Z,6.60
2018-12-01T07:49:59.472Z,6.60
2018-12-01T07:52:28.319Z,6.60
2018-12-01T07:54:57.888Z,6.60
2018-12-01T07:57:26.721Z,6.60
2018-12-01T07:59:55.576Z,6.60
2018-12-01T08:02:24.406Z,6.70
2018-12-01T08:04:53.241Z,6.70
2018-12-01T08:07:22.077Z,6.70
2018-12-01T08:09:50.918Z,6.80
2018-12-01T08:12:19.753Z,6.80
2018-12-01T08:14:48.712Z,6.80
2018-12-01T08:17:17.552Z,6.90
2018-12-01T08:19:46.395Z,6.90
2018-12-01T08:22:15.242Z,6.90
2018-12-01T08:24:44.077Z,7.00
2018-12-01T08:27:12.937Z,7.00
2018-12-01T08:29:41.781Z,7.10
2018-12-01T08:32:10.620Z,7.20
2018-12-01T08:34:39.467Z,7.30
2018-12-01T08:37:08.319Z,7.30
2018-12-01T08:39:37.165Z,7.40
2018-12-01T08:42:06.011Z,7.40
2018-12-01T08:44:34.862Z,7.50
2018-12-01T08:47:03.705Z,7.50
2018-12-01T08:49:32.547Z,7.60
2018-12-01T08:52:01.393Z,7.60
2018-12-01T08:54:30.242Z,7.70
2018-12-01T08:56:59.086Z,7.70
2018-12-01T08:59:27.927Z,7.80
2018-12-01T09:01:57.536Z,7.80
2018-12-01T09:04:26.387Z,7.90
2018-12-01T09:06:55.223Z,8.00
2018-12-01T09:09:24.813Z,8.10
2018-12-01T09:11:53.655Z,8.10
2018-12-01T09:14:22.497Z,8.20
2018-12-01T09:16:51.452Z,8.20
2018-12-01T09:19:20.283Z,8.30
2018-12-01T09:21:49.868Z,8.30
2018-12-01T09:26:48.150Z,8.30
2018-12-01T09:29:16.979Z,8.30
2018-12-01T09:31:46.558Z,8.30
2018-12-01T09:34:15.416Z,8.30
2018-12-01T09:36:44.262Z,8.30
2018-12-01T09:39:13.100Z,8.30
2018-12-01T09:41:41.946Z,8.40
2018-12-01T09:44:10.785Z,8.30
2018-12-01T09:46:39.615Z,8.40
2018-12-01T09:49:08.445Z,8.40
2018-12-01T09:51:37.288Z,8.40
2018-12-01T09:54:06.867Z,8.30
2018-12-01T09:56:35.698Z,8.40
2018-12-01T09:59:05.290Z,8.40
2018-12-01T10:01:34.863Z,8.40
2018-12-01T10:04:03.707Z,8.50
2018-12-01T10:06:32.546Z,8.50
2018-12-01T10:09:01.407Z,8.60
2018-12-01T10:11:30.254Z,8.60
2018-12-01T10:13:59.836Z,8.60
2018-12-01T10:16:28.657Z,8.70
2018-12-01T10:18:57.499Z,8.70
2018-12-01T10:21:26.328Z,8.70
2018-12-01T10:23:55.910Z,8.70
2018-12-01T10:26:24.769Z,8.70
2018-12-01T10:28:53.616Z,8.70
2018-12-01T10:31:23.244Z,8.70
2018-12-01T10:33:52.104Z,8.70
2018-12-01T10:36:21.709Z,8.80
2018-12-01T10:38:51.302Z,8.80
2018-12-01T10:41:20.143Z,8.90
2018-12-01T10:43:48.993Z,9.40
2018-12-01T10:46:18.566Z,9.50
2018-12-01T10:48:47.438Z,9.30
2018-12-01T10:51:16.323Z,9.20
2018-12-01T10:53:45.149Z,9.40
2018-12-01T10:56:13.979Z,9.30
2018-12-01T10:58:42.822Z,9.20
2018-12-01T11:01:12.668Z,9.20
2018-12-01T11:03:41.508Z,9.20
2018-12-01T11:06:10.360Z,9.20
2018-12-01T11:08:39.197Z,9.30
2018-12-01T11:11:08.045Z,9.40
2018-12-01T11:13:36.887Z,9.40
2018-12-01T11:16:05.729Z,9.50
2018-12-01T11:18:34.578Z,9.50
2018-12-01T11:21:04.266Z,9.50
2018-12-01T11:23:33.119Z,9.40
2018-12-01T11:26:01.955Z,9.40
2018-12-01T11:31:00.215Z,9.30
2018-12-01T11:33:29.064Z,9.30
2018-12-01T11:35:58.643Z,9.30
2018-12-01T11:38:27.474Z,9.30
2018-12-01T11:40:56.313Z,9.40
2018-12-01T11:43:25.150Z,9.40
2018-12-01T11:45:54.002Z,9.40
2018-12-01T11:48:22.847Z,9.40
2018-12-01T11:50:51.678Z,9.50
2018-12-01T11:53:20.530Z,9.50
2018-12-01T11:55:49.370Z,9.50
2018-12-01T11:58:18.945Z,9.50
2018-12-01T12:00:47.816Z,9.60
2018-12-01T12:03:16.643Z,9.60
2018-12-01T12:05:45.516Z,9.70
2018-12-01T12:08:14.316Z,9.70
2018-12-01T12:10:43.193Z,9.70
2018-12-01T12:13:12.003Z,9.70
2018-12-01T12:15:40.853Z,9.70
2018-12-01T12:18:09.697Z,9.80
2018-12-01T12:20:38.626Z,9.90
2018-12-01T12:23:07.379Z,10.00
2018-12-01T12:25:37.237Z,9.90
2018-12-01T12:28:05.991Z,9.90
2018-12-01T12:30:34.827Z,9.90
2018-12-01T12:33:03.661Z,9.80
2018-12-01T12:35:32.494Z,9.80
2018-12-01T12:38:01.319Z,9.80
2018-12-01T12:40:30.145Z,9.80
2018-12-01T12:42:58.980Z,9.70
2018-12-01T12:45:27.829Z,9.70
2018-12-01T12:47:56.674Z,9.70
2018-12-01T12:50:26.267Z,9.70
2018-12-01T12:52:55.129Z,9.70
2018-12-01T12:55:23.977Z,9.70
2018-12-01T12:57:52.831Z,9.80
2018-12-01T13:00:21.663Z,9.80
2018-12-01T13:02:50.546Z,9.80
2018-12-01T13:05:19.379Z,9.80
2018-12-01T13:07:48.207Z,9.80
2018-12-01T13:10:17.780Z,9.80
2018-12-01T13:12:46.622Z,9.80
2018-12-01T13:15:15.464Z,9.80
2018-12-01T13:17:44.287Z,9.80
2018-12-01T13:20:13.116Z,9.80
2018-12-01T13:22:41.941Z,9.80
2018-12-01T13:25:10.763Z,9.80
2018-12-01T13:27:39.629Z,9.70
2018-12-01T13:30:08.437Z,9.70
2018-12-01T13:32:37.266Z,9.70
2018-12-01T13:35:06.120Z,9.70
2018-12-01T13:37:34.960Z,9.70
2018-12-01T13:40:03.785Z,9.60
2018-12-01T13:42:33.374Z,9.70
2018-12-01T13:45:02.348Z,9.70
2018-12-01T13:47:31.188Z,9.70
2018-12-01T13:50:00.047Z,9.70
2018-12-01T13:54:58.316Z,9.70
2018-12-01T13:57:27.154Z,9.80
2018-12-01T13:59:56.138Z,9.80
2018-12-01T14:02:24.935Z,9.80
2018-12-01T14:04:53.768Z,9.80
2018-12-01T14:07:24.134Z,9.80
2018-12-01T14:09:52.982Z,9.80
2018-12-01T14:12:21.808Z,9.70
2018-12-01T14:14:50.918Z,9.70
2018-12-01T14:17:20.502Z,9.70
2018-12-01T14:19:49.348Z,9.70
2018-12-01T14:22:18.202Z,9.70
2018-12-01T14:24:47.781Z,9.70
2018-12-01T14:27:16.611Z,9.60
2018-12-01T14:29:45.433Z,9.60
2018-12-01T14:32:14.256Z,9.60
2018-12-01T14:34:43.146Z,9.60
2018-12-01T14:37:11.957Z,9.60
2018-12-01T14:39:40.796Z,9.60
2018-12-01T14:42:09.630Z,9.50
2018-12-01T14:44:39.205Z,9.50
2018-12-01T14:47:08.056Z,9.50
2018-12-01T14:49:36.907Z,9.40
2018-12-01T14:52:06.482Z,9.40
2018-12-01T14:54:35.326Z,9.40
2018-12-01T14:57:04.160Z,9.40
2018-12-01T14:59:32.995Z,9.40
2018-12-01T15:02:01.843Z,9.30
2018-12-01T15:04:30.679Z,9.30
2018-12-01T15:06:59.519Z,9.30
2018-12-01T15:09:28.345Z,9.30
2018-12-01T15:11:57.932Z,9.20
2018-12-01T15:14:26.825Z,9.20
2018-12-01T15:16:55.613Z,9.20
2018-12-01T15:19:25.181Z,9.10
2018-12-01T15:21:54.026Z,9.20
2018-12-01T15:24:22.866Z,9.10
2018-12-01T15:26:51.722Z,9.10
2018-12-01T15:29:20.629Z,9.10
2018-12-01T15:31:49.482Z,9.10
2018-12-01T15:34:19.060Z,9.10
2018-12-01T15:36:47.916Z,9.10
2018-12-01T15:39:16.755Z,9.10
2018-12-01T15:41:45.607Z,9.10
2018-12-01T15:44:14.477Z,9.00
2018-12-01T15:46:43.303Z,9.10
2018-12-01T15:49:12.171Z,9.00
2018-12-01T15:51:40.993Z,9.00
2018-12-01T15:54:09.831Z,9.00
2018-12-01T15:56:38.663Z,9.00
2018-12-01T15:59:08.237Z,9.00
2018-12-01T16:01:37.082Z,9.00
2018-12-01T16:04:06.643Z,9.00
2018-12-01T16:06:35.468Z,9.00
2018-12-01T16:09:04.323Z,8.90
2018-12-01T16:11:33.152Z,9.00
2018-12-01T16:14:02.739Z,9.00
2018-12-01T16:16:32.315Z,8.90
2018-12-01T16:19:01.158Z,9.00
2018-12-01T16:21:29.993Z,8.90
2018-12-01T16:23:58.828Z,8.90
2018-12-01T16:26:28.422Z,8.90
2018-12-01T16:28:58.003Z,8.90
2018-12-01T16:31:26.827Z,9.00
2018-12-01T16:33:55.675Z,9.00
2018-12-01T16:36:24.540Z,9.00
2018-12-01T16:38:53.393Z,9.00
2018-12-01T16:41:22.974Z,9.00
2018-12-01T16:43:51.927Z,9.00
2018-12-01T16:46:20.721Z,9.00
2018-12-01T16:48:49.558Z,9.00
2018-12-01T16:51:20.690Z,8.90
2018-12-01T16:53:48.684Z,8.90
2018-12-01T16:56:17.498Z,8.90
2018-12-01T16:58:46.332Z,8.90
2018-12-01T17:01:15.167Z,8.90
2018-12-01T17:03:44.004Z,8.90
2018-12-01T17:06:12.854Z,8.90
2018-12-01T17:08:41.686Z,8.90
2018-12-01T17:11:10.530Z,8.90
2018-12-01T17:20:09.662Z,8.90
2018-12-01T17:22:38.509Z,8.90
2018-12-01T17:25:07.371Z,8.90
2018-12-01T17:27:36.215Z,8.90
2018-12-01T17:30:05.058Z,8.90
2018-12-01T17:32:33.910Z,8.90
2018-12-01T17:35:02.740Z,8.90
2018-12-01T17:37:32.434Z,8.90
2018-12-01T17:40:01.264Z,8.90
2018-12-01T17:42:30.118Z,8.90
2018-12-01T17:44:58.964Z,8.90
2018-12-01T17:47:27.830Z,8.90
2018-12-01T17:49:56.673Z,9.00
2018-12-01T17:52:25.528Z,9.00
2018-12-01T17:54:54.375Z,9.00
2018-12-01T17:57:23.949Z,9.00
2018-12-01T17:59:52.791Z,9.00
2018-12-01T18:02:21.636Z,9.00
2018-12-01T18:04:51.048Z,9.00
2018-12-01T18:07:20.762Z,9.00
2018-12-01T18:09:49.616Z,9.00
2018-12-01T18:12:18.465Z,9.10
2018-12-01T18:14:48.051Z,9.00
2018-12-01T18:17:16.897Z,9.00
2018-12-01T18:19:45.734Z,9.00
2018-12-01T18:22:15.318Z,9.00
2018-12-01T18:24:44.165Z,9.00
2018-12-01T18:27:13.003Z,9.00
2018-12-01T18:29:41.838Z,8.90
2018-12-01T18:32:10.683Z,8.90
2018-12-01T18:34:39.540Z,8.90
2018-12-01T18:37:08.359Z,8.90
2018-12-01T18:42:15.713Z,9.00
2018-12-01T18:44:44.537Z,9.00
2018-12-01T18:47:13.379Z,9.00
2018-12-01T18:49:42.245Z,9.00
2018-12-01T18:52:11.069Z,8.90
2018-12-01T18:54:39.931Z,8.90
2018-12-01T18:57:09.520Z,8.90
2018-12-01T18:59:39.132Z,8.90
2018-12-01T19:02:07.953Z,9.00
2018-12-01T19:04:36.798Z,8.90
2018-12-01T19:07:06.386Z,8.90
2018-12-01T19:09:35.233Z,8.80
2018-12-01T19:12:04.088Z,8.90
2018-12-01T19:14:32.923Z,8.90
2018-12-01T19:17:01.785Z,8.90
2018-12-01T19:19:30.621Z,8.90
2018-12-01T19:21:59.484Z,8.80
2018-12-01T19:24:28.314Z,8.80
2018-12-01T19:26:57.192Z,8.90
2018-12-01T19:29:26.069Z,8.80
2018-12-01T19:31:55.629Z,8.80
2018-12-01T19:34:24.468Z,8.80
2018-12-01T19:36:53.313Z,8.80
2018-12-01T19:39:22.903Z,8.80
2018-12-01T19:41:51.756Z,8.80
2018-12-01T19:44:20.588Z,8.80
2018-12-01T19:46:49.492Z,8.80
2018-12-01T19:49:18.296Z,8.80
2018-12-01T19:51:47.153Z,8.80
2018-12-01T19:54:15.997Z,8.70
2018-12-01T19:56:44.835Z,8.70
2018-12-01T19:59:14.452Z,8.60
2018-12-01T20:01:44.042Z,8.60
2018-12-01T20:04:12.898Z,8.60
2018-12-01T20:06:41.810Z,8.60
2018-12-01T20:09:10.708Z,8.60
2018-12-01T20:11:39.560Z,8.60
2018-12-01T20:14:08.428Z,8.60
2018-12-01T20:16:37.336Z,8.50
2018-12-01T20:19:06.967Z,8.50
2018-12-01T20:21:35.825Z,8.60
2018-12-01T20:24:04.681Z,8.50
2018-12-01T20:26:33.548Z,8.60
2018-12-01T20:29:02.364Z,8.60
2018-12-01T20:31:31.216Z,8.50
2018-12-01T20:34:00.064Z,8.60
2018-12-01T20:36:28.911Z,8.60
2018-12-01T20:38:57.747Z,8.60
2018-12-01T20:43:47.479Z,8.60
2018-12-01T20:46:16.280Z,8.50
2018-12-01T20:48:45.272Z,8.50
2018-12-01T20:51:14.004Z,8.50
2018-12-01T20:53:42.845Z,8.50
2018-12-01T20:56:11.704Z,8.40
2018-12-01T20:58:40.564Z,8.50
2018-12-01T21:01:09.419Z,8.50
2018-12-01T21:03:38.239Z,8.40
2018-12-01T21:06:07.130Z,8.40
2018-12-01T21:08:35.966Z,8.50
2018-12-01T21:11:04.807Z,8.40
2018-12-01T21:13:33.662Z,8.50
2018-12-01T21:18:31.966Z,8.40
2018-12-01T21:21:01.565Z,8.40
2018-12-01T21:23:30.411Z,8.40
2018-12-01T21:25:59.238Z,8.50
2018-12-01T21:30:57.547Z,8.50
2018-12-01T21:33:27.142Z,8.50
2018-12-01T21:35:56.736Z,8.50
2018-12-01T21:38:25.575Z,8.50
2018-12-01T21:40:54.424Z,8.50
2018-12-01T21:43:23.272Z,8.50
2018-12-01T21:45:52.115Z,8.50
2018-12-01T21:48:21.029Z,8.50
2018-12-01T21:50:49.846Z,8.50
2018-12-01T21:53:18.681Z,8.50
2018-12-01T21:55:48.248Z,8.50
2018-12-01T21:58:17.088Z,8.50
2018-12-01T22:00:46.669Z,8.50
2018-12-01T22:03:15.517Z,8.50
2018-12-01T22:05:44.354Z,8.50
2018-12-01T22:08:13.210Z,8.50
2018-12-01T22:10:42.045Z,8.50
2018-12-01T22:13:11.637Z,8.50
2018-12-01T22:15:41.223Z,8.50
2018-12-01T22:18:10.062Z,8.50
2018-12-01T22:20:38.905Z,8.50
2018-12-01T22:23:07.743Z,8.50
2018-12-01T22:25:36.583Z,8.50
2018-12-01T22:28:05.424Z,8.50
2018-12-01T22:30:34.259Z,8.50
2018-12-01T22:33:03.093Z,8.50
2018-12-01T22:35:31.953Z,8.50
2018-12-01T22:38:00.789Z,8.50
2018-12-01T22:40:29.636Z,8.50
2018-12-01T22:42:59.223Z,8.50
2018-12-01T22:45:28.068Z,8.50
2018-12-01T22:47:56.933Z,8.50
2018-12-01T22:50:25.724Z,8.50
2018-12-01T22:52:55.293Z,8.50
2018-12-01T22:55:24.129Z,8.50
2018-12-01T22:57:52.983Z,8.60
2018-12-01T23:00:21.837Z,8.50
2018-12-01T23:02:50.687Z,8.60
2018-12-01T23:05:20.269Z,8.50
2018-12-01T23:07:49.108Z,8.50
2018-12-01T23:10:17.955Z,8.60
2018-12-01T23:12:47.564Z,8.60
2018-12-01T23:15:16.392Z,8.60
2018-12-01T23:17:45.233Z,8.60
2018-12-01T23:20:14.073Z,8.60
2018-12-01T23:22:42.905Z,8.70
2018-12-01T23:25:11.753Z,8.70
2018-12-01T23:27:40.585Z,8.70
2018-12-01T23:30:09.431Z,8.70
2018-12-01T23:32:38.277Z,8.80
2018-12-01T23:35:07.844Z,8.80
2018-12-01T23:37:36.673Z,8.80
2018-12-01T23:40:06.253Z,8.80
2018-12-01T23:42:35.091Z,8.80
2018-12-01T23:45:03.943Z,8.80
2018-12-01T23:47:32.781Z,8.80
2018-12-01T23:50:01.615Z,8.80
2018-12-01T23:52:30.469Z,8.80
2018-12-01T23:54:59.319Z,8.90
2018-12-01T23:57:28.170Z,8.90
2018-12-01T23:59:56.990Z,8.90
